Jonesboro Heights, North Carolina
Current Conditions -  °F | °C
As of 11:35 PM on Thursday 18 Dec 2014 (Local Time) from KTTA Reporting Station
Broken Clouds Broken Clouds  
Wind Chill: 35°   Ceiling: 7000
Heat Index: 35°   Visibility: 10mi
Dew Point: 35°   Wind: 0mph
Humidity: 99%   Direction: NA
Pressure: 30.11"   Gusts: NA
Location:  35.493°N, 79.1765°W
Report Text: KTTA 190435Z AUTO 00000KT 10SM BKN070 02/02 A3011 RMK AO2 T00170015
Loading
Personal Weather Stations






























Interactive Weather Map New forecast layout! Learn more

10-Day Weather Forecast

Advertisements
Track Severe Weather on mobile